sensor_id;sensor_type;location;lat;lon;timestamp;P1;durP1;ratioP1;P2;durP2;ratioP2
11481;SDS011;5797;51.662;6.748;2022-10-04T00:00:23;3.90;;;2.40;;
11481;SDS011;5797;51.662;6.748;2022-10-04T00:03:16;2.77;;;2.30;;
11481;SDS011;5797;51.662;6.748;2022-10-04T00:06:04;4.53;;;2.23;;
11481;SDS011;5797;51.662;6.748;2022-10-04T00:08:57;5.53;;;2.37;;
11481;SDS011;5797;51.662;6.748;2022-10-04T00:11:46;7.00;;;2.30;;
11481;SDS011;5797;51.662;6.748;2022-10-04T00:14:34;3.70;;;2.07;;
11481;SDS011;5797;51.662;6.748;2022-10-04T00:17:23;6.73;;;2.20;;
11481;SDS011;5797;51.662;6.748;2022-10-04T00:23:39;3.10;;;2.07;;
11481;SDS011;5797;51.662;6.748;2022-10-04T00:30:12;5.77;;;2.43;;
11481;SDS011;5797;51.662;6.748;2022-10-04T00:33:06;3.40;;;2.10;;
11481;SDS011;5797;51.662;6.748;2022-10-04T00:35:53;7.07;;;2.73;;
11481;SDS011;5797;51.662;6.748;2022-10-04T00:38:39;8.30;;;2.60;;
11481;SDS011;5797;51.662;6.748;2022-10-04T00:41:27;8.03;;;2.90;;
11481;SDS011;5797;51.662;6.748;2022-10-04T00:44:16;6.40;;;3.07;;
11481;SDS011;5797;51.662;6.748;2022-10-04T00:47:13;9.83;;;3.50;;
11481;SDS011;5797;51.662;6.748;2022-10-04T00:50:10;4.03;;;2.87;;
11481;SDS011;5797;51.662;6.748;2022-10-04T00:53:00;5.77;;;2.77;;
11481;SDS011;5797;51.662;6.748;2022-10-04T00:55:50;5.53;;;3.07;;
11481;SDS011;5797;51.662;6.748;2022-10-04T00:58:43;5.13;;;3.17;;
11481;SDS011;5797;51.662;6.748;2022-10-04T01:01:34;7.87;;;4.10;;
11481;SDS011;5797;51.662;6.748;2022-10-04T01:04:25;5.23;;;2.53;;
11481;SDS011;5797;51.662;6.748;2022-10-04T01:07:16;3.27;;;2.43;;
11481;SDS011;5797;51.662;6.748;2022-10-04T01:10:07;6.63;;;2.90;;
11481;SDS011;5797;51.662;6.748;2022-10-04T01:12:57;6.10;;;2.70;;
11481;SDS011;5797;51.662;6.748;2022-10-04T01:15:48;11.63;;;2.80;;
11481;SDS011;5797;51.662;6.748;2022-10-04T01:18:37;6.23;;;2.80;;
11481;SDS011;5797;51.662;6.748;2022-10-04T01:21:26;6.17;;;2.60;;
11481;SDS011;5797;51.662;6.748;2022-10-04T01:24:20;8.80;;;3.20;;
11481;SDS011;5797;51.662;6.748;2022-10-04T01:30:18;5.87;;;2.80;;
11481;SDS011;5797;51.662;6.748;2022-10-04T01:33:04;6.10;;;2.53;;
11481;SDS011;5797;51.662;6.748;2022-10-04T01:35:52;3.03;;;2.53;;
11481;SDS011;5797;51.662;6.748;2022-10-04T01:38:38;8.30;;;2.73;;
11481;SDS011;5797;51.662;6.748;2022-10-04T01:41:28;3.10;;;2.70;;
11481;SDS011;5797;51.662;6.748;2022-10-04T01:44:25;3.67;;;2.60;;
11481;SDS011;5797;51.662;6.748;2022-10-04T01:47:15;7.17;;;2.87;;
11481;SDS011;5797;51.662;6.748;2022-10-04T01:50:07;7.13;;;3.00;;
11481;SDS011;5797;51.662;6.748;2022-10-04T01:53:00;5.50;;;3.00;;
11481;SDS011;5797;51.662;6.748;2022-10-04T01:55:56;4.90;;;2.77;;
11481;SDS011;5797;51.662;6.748;2022-10-04T01:58:52;5.50;;;2.83;;
11481;SDS011;5797;51.662;6.748;2022-10-04T02:01:43;5.87;;;2.70;;
11481;SDS011;5797;51.662;6.748;2022-10-04T02:04:34;6.80;;;3.17;;
11481;SDS011;5797;51.662;6.748;2022-10-04T02:07:23;5.43;;;3.00;;
11481;SDS011;5797;51.662;6.748;2022-10-04T02:10:14;6.63;;;2.90;;
11481;SDS011;5797;51.662;6.748;2022-10-04T02:13:02;5.63;;;3.23;;
11481;SDS011;5797;51.662;6.748;2022-10-04T02:15:53;3.77;;;2.40;;
11481;SDS011;5797;51.662;6.748;2022-10-04T02:18:40;5.00;;;3.07;;
11481;SDS011;5797;51.662;6.748;2022-10-04T02:21:28;4.90;;;3.00;;
11481;SDS011;5797;51.662;6.748;2022-10-04T02:24:16;6.90;;;2.90;;
11481;SDS011;5797;51.662;6.748;2022-10-04T02:27:04;4.73;;;2.80;;
11481;SDS011;5797;51.662;6.748;2022-10-04T02:29:50;8.77;;;3.20;;
11481;SDS011;5797;51.662;6.748;2022-10-04T02:32:39;11.70;;;3.13;;
11481;SDS011;5797;51.662;6.748;2022-10-04T02:35:45;5.20;;;3.13;;
11481;SDS011;5797;51.662;6.748;2022-10-04T02:38:33;5.90;;;3.67;;
11481;SDS011;5797;51.662;6.748;2022-10-04T02:41:23;3.77;;;3.00;;
11481;SDS011;5797;51.662;6.748;2022-10-04T02:44:13;4.13;;;3.10;;
11481;SDS011;5797;51.662;6.748;2022-10-04T02:47:04;9.37;;;3.47;;
11481;SDS011;5797;51.662;6.748;2022-10-04T02:49:55;5.97;;;3.43;;
11481;SDS011;5797;51.662;6.748;2022-10-04T02:52:45;13.53;;;3.00;;
11481;SDS011;5797;51.662;6.748;2022-10-04T02:55:35;8.60;;;3.30;;
11481;SDS011;5797;51.662;6.748;2022-10-04T02:58:25;4.57;;;3.17;;
11481;SDS011;5797;51.662;6.748;2022-10-04T03:01:14;6.77;;;3.20;;
11481;SDS011;5797;51.662;6.748;2022-10-04T03:04:12;9.60;;;4.30;;
11481;SDS011;5797;51.662;6.748;2022-10-04T03:07:04;7.50;;;3.63;;
11481;SDS011;5797;51.662;6.748;2022-10-04T03:09:52;6.30;;;3.60;;
11481;SDS011;5797;51.662;6.748;2022-10-04T03:12:39;7.43;;;3.77;;
11481;SDS011;5797;51.662;6.748;2022-10-04T03:15:41;6.87;;;3.63;;
11481;SDS011;5797;51.662;6.748;2022-10-04T03:18:28;7.63;;;3.67;;
11481;SDS011;5797;51.662;6.748;2022-10-04T03:21:17;6.70;;;3.67;;
11481;SDS011;5797;51.662;6.748;2022-10-04T03:24:07;12.43;;;3.80;;
11481;SDS011;5797;51.662;6.748;2022-10-04T03:26:56;10.53;;;3.60;;
11481;SDS011;5797;51.662;6.748;2022-10-04T03:29:44;15.10;;;3.43;;
11481;SDS011;5797;51.662;6.748;2022-10-04T03:32:31;9.70;;;4.10;;
11481;SDS011;5797;51.662;6.748;2022-10-04T03:35:21;8.67;;;4.07;;
11481;SDS011;5797;51.662;6.748;2022-10-04T03:38:13;7.73;;;3.93;;
11481;SDS011;5797;51.662;6.748;2022-10-04T03:41:02;7.77;;;4.63;;
11481;SDS011;5797;51.662;6.748;2022-10-04T03:43:49;5.67;;;3.80;;
11481;SDS011;5797;51.662;6.748;2022-10-04T03:46:38;8.37;;;4.23;;
11481;SDS011;5797;51.662;6.748;2022-10-04T03:49:29;9.97;;;4.37;;
11481;SDS011;5797;51.662;6.748;2022-10-04T03:52:18;8.10;;;3.87;;
11481;SDS011;5797;51.662;6.748;2022-10-04T03:55:09;5.67;;;3.77;;
11481;SDS011;5797;51.662;6.748;2022-10-04T03:57:59;5.53;;;3.50;;
11481;SDS011;5797;51.662;6.748;2022-10-04T04:00:52;4.87;;;3.20;;
11481;SDS011;5797;51.662;6.748;2022-10-04T04:03:53;6.97;;;3.97;;
11481;SDS011;5797;51.662;6.748;2022-10-04T04:06:45;7.70;;;3.60;;
11481;SDS011;5797;51.662;6.748;2022-10-04T04:09:36;5.23;;;3.50;;
11481;SDS011;5797;51.662;6.748;2022-10-04T04:12:26;7.53;;;3.60;;
11481;SDS011;5797;51.662;6.748;2022-10-04T04:15:21;6.70;;;3.50;;
11481;SDS011;5797;51.662;6.748;2022-10-04T04:18:10;8.20;;;4.13;;
11481;SDS011;5797;51.662;6.748;2022-10-04T04:21:00;7.70;;;3.73;;
11481;SDS011;5797;51.662;6.748;2022-10-04T04:23:48;8.93;;;3.93;;
11481;SDS011;5797;51.662;6.748;2022-10-04T04:26:38;9.13;;;3.63;;
11481;SDS011;5797;51.662;6.748;2022-10-04T04:29:29;7.87;;;3.50;;
11481;SDS011;5797;51.662;6.748;2022-10-04T04:32:20;8.03;;;4.27;;
11481;SDS011;5797;51.662;6.748;2022-10-04T04:35:19;5.97;;;4.20;;
11481;SDS011;5797;51.662;6.748;2022-10-04T04:38:15;8.70;;;4.20;;
11481;SDS011;5797;51.662;6.748;2022-10-04T04:41:06;8.70;;;4.30;;
11481;SDS011;5797;51.662;6.748;2022-10-04T04:43:55;9.53;;;4.73;;
11481;SDS011;5797;51.662;6.748;2022-10-04T04:46:43;6.17;;;4.33;;
11481;SDS011;5797;51.662;6.748;2022-10-04T04:49:31;13.03;;;4.53;;
11481;SDS011;5797;51.662;6.748;2022-10-04T04:52:19;8.47;;;4.40;;
11481;SDS011;5797;51.662;6.748;2022-10-04T04:55:14;15.93;;;4.67;;
11481;SDS011;5797;51.662;6.748;2022-10-04T04:58:03;10.20;;;4.33;;
11481;SDS011;5797;51.662;6.748;2022-10-04T05:00:53;8.50;;;4.73;;
11481;SDS011;5797;51.662;6.748;2022-10-04T05:03:41;11.03;;;4.93;;
11481;SDS011;5797;51.662;6.748;2022-10-04T05:06:29;9.50;;;5.80;;
11481;SDS011;5797;51.662;6.748;2022-10-04T05:09:24;12.07;;;6.70;;
11481;SDS011;5797;51.662;6.748;2022-10-04T05:12:13;16.20;;;7.20;;
11481;SDS011;5797;51.662;6.748;2022-10-04T05:15:03;15.83;;;8.17;;
11481;SDS011;5797;51.662;6.748;2022-10-04T05:17:50;14.03;;;7.63;;
11481;SDS011;5797;51.662;6.748;2022-10-04T05:20:38;11.93;;;7.73;;
11481;SDS011;5797;51.662;6.748;2022-10-04T05:23:26;16.57;;;7.53;;
11481;SDS011;5797;51.662;6.748;2022-10-04T05:26:13;16.33;;;7.50;;
11481;SDS011;5797;51.662;6.748;2022-10-04T05:29:00;12.70;;;6.97;;
11481;SDS011;5797;51.662;6.748;2022-10-04T05:31:55;15.03;;;7.30;;
11481;SDS011;5797;51.662;6.748;2022-10-04T05:34:48;13.43;;;6.97;;
11481;SDS011;5797;51.662;6.748;2022-10-04T05:37:50;12.23;;;7.37;;
11481;SDS011;5797;51.662;6.748;2022-10-04T05:40:44;15.80;;;7.37;;
11481;SDS011;5797;51.662;6.748;2022-10-04T05:43:35;14.17;;;7.73;;
11481;SDS011;5797;51.662;6.748;2022-10-04T05:46:24;14.07;;;7.23;;
11481;SDS011;5797;51.662;6.748;2022-10-04T05:49:12;17.03;;;7.00;;
11481;SDS011;5797;51.662;6.748;2022-10-04T05:52:05;15.60;;;7.50;;
11481;SDS011;5797;51.662;6.748;2022-10-04T06:01:30;16.63;;;7.83;;
11481;SDS011;5797;51.662;6.748;2022-10-04T06:04:36;13.50;;;7.37;;
11481;SDS011;5797;51.662;6.748;2022-10-04T06:07:29;20.87;;;7.97;;
11481;SDS011;5797;51.662;6.748;2022-10-04T06:10:25;15.30;;;7.27;;
11481;SDS011;5797;51.662;6.748;2022-10-04T06:13:37;15.40;;;7.13;;
11481;SDS011;5797;51.662;6.748;2022-10-04T06:16:40;19.83;;;7.30;;
11481;SDS011;5797;51.662;6.748;2022-10-04T06:19:48;14.53;;;6.83;;
11481;SDS011;5797;51.662;6.748;2022-10-04T06:22:51;12.33;;;7.80;;
11481;SDS011;5797;51.662;6.748;2022-10-04T06:25:44;19.83;;;7.93;;
11481;SDS011;5797;51.662;6.748;2022-10-04T06:28:34;12.87;;;7.23;;
11481;SDS011;5797;51.662;6.748;2022-10-04T06:31:31;22.27;;;7.90;;
11481;SDS011;5797;51.662;6.748;2022-10-04T06:34:47;14.67;;;7.80;;
11481;SDS011;5797;51.662;6.748;2022-10-04T06:44:12;18.57;;;7.90;;
11481;SDS011;5797;51.662;6.748;2022-10-04T06:47:28;19.40;;;7.87;;
11481;SDS011;5797;51.662;6.748;2022-10-04T06:50:23;13.30;;;8.10;;
11481;SDS011;5797;51.662;6.748;2022-10-04T06:53:13;13.37;;;7.30;;
11481;SDS011;5797;51.662;6.748;2022-10-04T06:56:15;12.93;;;7.53;;
11481;SDS011;5797;51.662;6.748;2022-10-04T06:59:17;18.90;;;7.73;;
11481;SDS011;5797;51.662;6.748;2022-10-04T07:02:12;14.67;;;7.97;;
11481;SDS011;5797;51.662;6.748;2022-10-04T07:05:04;15.00;;;8.20;;
11481;SDS011;5797;51.662;6.748;2022-10-04T07:08:04;14.90;;;7.87;;
11481;SDS011;5797;51.662;6.748;2022-10-04T07:11:16;14.60;;;7.87;;
11481;SDS011;5797;51.662;6.748;2022-10-04T07:14:09;12.33;;;8.17;;
11481;SDS011;5797;51.662;6.748;2022-10-04T07:17:00;13.93;;;7.67;;
11481;SDS011;5797;51.662;6.748;2022-10-04T07:19:50;14.63;;;8.23;;
11481;SDS011;5797;51.662;6.748;2022-10-04T07:22:40;16.37;;;7.70;;
11481;SDS011;5797;51.662;6.748;2022-10-04T07:25:30;14.93;;;8.33;;
11481;SDS011;5797;51.662;6.748;2022-10-04T07:28:21;17.27;;;8.27;;
11481;SDS011;5797;51.662;6.748;2022-10-04T07:31:29;14.57;;;8.60;;
11481;SDS011;5797;51.662;6.748;2022-10-04T07:34:20;12.40;;;8.33;;
11481;SDS011;5797;51.662;6.748;2022-10-04T07:37:10;24.77;;;8.93;;
11481;SDS011;5797;51.662;6.748;2022-10-04T07:40:01;16.27;;;9.73;;
11481;SDS011;5797;51.662;6.748;2022-10-04T07:42:50;15.57;;;8.80;;
11481;SDS011;5797;51.662;6.748;2022-10-04T07:45:41;15.40;;;8.20;;
11481;SDS011;5797;51.662;6.748;2022-10-04T07:48:28;16.73;;;7.87;;
11481;SDS011;5797;51.662;6.748;2022-10-04T07:51:18;22.07;;;8.10;;
11481;SDS011;5797;51.662;6.748;2022-10-04T07:54:10;21.23;;;9.13;;
11481;SDS011;5797;51.662;6.748;2022-10-04T07:57:01;21.87;;;9.07;;
11481;SDS011;5797;51.662;6.748;2022-10-04T07:59:55;17.53;;;9.43;;
11481;SDS011;5797;51.662;6.748;2022-10-04T08:03:08;14.30;;;9.10;;
11481;SDS011;5797;51.662;6.748;2022-10-04T08:06:08;19.50;;;9.63;;
11481;SDS011;5797;51.662;6.748;2022-10-04T08:09:02;17.23;;;8.97;;
11481;SDS011;5797;51.662;6.748;2022-10-04T08:12:01;22.13;;;8.93;;
11481;SDS011;5797;51.662;6.748;2022-10-04T08:14:54;19.90;;;10.03;;
11481;SDS011;5797;51.662;6.748;2022-10-04T08:17:56;22.83;;;10.57;;
11481;SDS011;5797;51.662;6.748;2022-10-04T08:20:47;23.63;;;10.00;;
11481;SDS011;5797;51.662;6.748;2022-10-04T08:23:57;19.97;;;10.00;;
11481;SDS011;5797;51.662;6.748;2022-10-04T08:26:56;24.63;;;10.23;;
11481;SDS011;5797;51.662;6.748;2022-10-04T08:29:56;22.73;;;9.60;;
11481;SDS011;5797;51.662;6.748;2022-10-04T08:32:53;23.00;;;10.27;;
11481;SDS011;5797;51.662;6.748;2022-10-04T08:35:52;19.90;;;10.83;;
11481;SDS011;5797;51.662;6.748;2022-10-04T08:38:47;21.80;;;10.13;;
11481;SDS011;5797;51.662;6.748;2022-10-04T08:51:55;22.47;;;9.87;;
11481;SDS011;5797;51.662;6.748;2022-10-04T08:58:20;21.50;;;10.20;;
11481;SDS011;5797;51.662;6.748;2022-10-04T09:01:30;20.97;;;9.87;;
11481;SDS011;5797;51.662;6.748;2022-10-04T09:04:38;20.10;;;9.00;;
11481;SDS011;5797;51.662;6.748;2022-10-04T09:07:56;19.40;;;9.40;;
11481;SDS011;5797;51.662;6.748;2022-10-04T09:11:13;16.07;;;9.10;;
11481;SDS011;5797;51.662;6.748;2022-10-04T09:14:12;19.70;;;8.70;;
11481;SDS011;5797;51.662;6.748;2022-10-04T09:17:19;14.93;;;9.00;;
11481;SDS011;5797;51.662;6.748;2022-10-04T09:20:10;16.53;;;8.63;;
11481;SDS011;5797;51.662;6.748;2022-10-04T09:23:34;19.47;;;9.93;;
11481;SDS011;5797;51.662;6.748;2022-10-04T09:26:36;16.87;;;8.77;;
11481;SDS011;5797;51.662;6.748;2022-10-04T09:29:35;19.13;;;9.60;;
11481;SDS011;5797;51.662;6.748;2022-10-04T09:32:40;18.47;;;8.53;;
11481;SDS011;5797;51.662;6.748;2022-10-04T09:35:51;17.77;;;8.90;;
11481;SDS011;5797;51.662;6.748;2022-10-04T09:39:02;19.73;;;9.00;;
11481;SDS011;5797;51.662;6.748;2022-10-04T09:42:19;18.27;;;8.57;;
11481;SDS011;5797;51.662;6.748;2022-10-04T09:45:34;17.00;;;8.17;;
11481;SDS011;5797;51.662;6.748;2022-10-04T09:48:29;17.00;;;9.20;;
11481;SDS011;5797;51.662;6.748;2022-10-04T09:51:25;20.07;;;7.73;;
11481;SDS011;5797;51.662;6.748;2022-10-04T09:54:28;17.03;;;8.63;;
11481;SDS011;5797;51.662;6.748;2022-10-04T09:57:32;17.53;;;8.90;;
11481;SDS011;5797;51.662;6.748;2022-10-04T10:00:31;17.13;;;8.47;;
11481;SDS011;5797;51.662;6.748;2022-10-04T10:06:47;14.00;;;6.67;;
11481;SDS011;5797;51.662;6.748;2022-10-04T10:09:51;15.67;;;7.37;;
11481;SDS011;5797;51.662;6.748;2022-10-04T10:13:14;15.07;;;7.67;;
11481;SDS011;5797;51.662;6.748;2022-10-04T10:16:30;14.67;;;6.97;;
11481;SDS011;5797;51.662;6.748;2022-10-04T10:19:29;11.40;;;6.63;;
11481;SDS011;5797;51.662;6.748;2022-10-04T10:22:31;11.53;;;6.53;;
11481;SDS011;5797;51.662;6.748;2022-10-04T10:25:37;15.33;;;5.90;;
11481;SDS011;5797;51.662;6.748;2022-10-04T10:28:38;8.30;;;5.17;;
11481;SDS011;5797;51.662;6.748;2022-10-04T10:31:45;10.20;;;5.67;;
11481;SDS011;5797;51.662;6.748;2022-10-04T10:34:54;10.87;;;5.23;;
11481;SDS011;5797;51.662;6.748;2022-10-04T10:38:01;10.73;;;5.80;;
11481;SDS011;5797;51.662;6.748;2022-10-04T10:41:00;11.20;;;5.80;;
11481;SDS011;5797;51.662;6.748;2022-10-04T10:44:03;8.53;;;5.33;;
11481;SDS011;5797;51.662;6.748;2022-10-04T10:47:14;12.07;;;6.17;;
11481;SDS011;5797;51.662;6.748;2022-10-04T10:50:14;12.83;;;5.70;;
11481;SDS011;5797;51.662;6.748;2022-10-04T10:56:44;10.10;;;5.53;;
11481;SDS011;5797;51.662;6.748;2022-10-04T10:59:50;11.13;;;5.03;;
11481;SDS011;5797;51.662;6.748;2022-10-04T11:06:14;9.83;;;5.13;;
11481;SDS011;5797;51.662;6.748;2022-10-04T11:09:15;8.63;;;4.73;;
11481;SDS011;5797;51.662;6.748;2022-10-04T11:12:43;9.90;;;4.30;;
11481;SDS011;5797;51.662;6.748;2022-10-04T11:15:48;8.30;;;4.77;;
11481;SDS011;5797;51.662;6.748;2022-10-04T11:25:46;6.00;;;3.90;;
11481;SDS011;5797;51.662;6.748;2022-10-04T11:28:55;7.53;;;4.70;;
11481;SDS011;5797;51.662;6.748;2022-10-04T11:39:10;7.60;;;4.13;;
11481;SDS011;5797;51.662;6.748;2022-10-04T11:42:09;5.73;;;3.90;;
11481;SDS011;5797;51.662;6.748;2022-10-04T11:45:19;5.70;;;3.83;;
11481;SDS011;5797;51.662;6.748;2022-10-04T11:48:22;11.47;;;3.90;;
11481;SDS011;5797;51.662;6.748;2022-10-04T11:54:51;4.73;;;3.37;;
11481;SDS011;5797;51.662;6.748;2022-10-04T11:58:06;4.40;;;3.30;;
11481;SDS011;5797;51.662;6.748;2022-10-04T12:01:17;7.27;;;4.60;;
11481;SDS011;5797;51.662;6.748;2022-10-04T12:04:39;6.63;;;4.63;;
11481;SDS011;5797;51.662;6.748;2022-10-04T12:07:41;8.87;;;4.10;;
11481;SDS011;5797;51.662;6.748;2022-10-04T12:10:35;5.80;;;3.60;;
11481;SDS011;5797;51.662;6.748;2022-10-04T12:13:35;7.33;;;3.67;;
11481;SDS011;5797;51.662;6.748;2022-10-04T12:22:58;6.17;;;4.30;;
11481;SDS011;5797;51.662;6.748;2022-10-04T12:25:58;5.80;;;4.60;;
11481;SDS011;5797;51.662;6.748;2022-10-04T12:29:01;8.90;;;3.70;;
11481;SDS011;5797;51.662;6.748;2022-10-04T12:31:56;11.20;;;4.27;;
11481;SDS011;5797;51.662;6.748;2022-10-04T12:34:45;9.93;;;5.30;;
11481;SDS011;5797;51.662;6.748;2022-10-04T12:37:37;5.33;;;3.90;;
11481;SDS011;5797;51.662;6.748;2022-10-04T12:40:27;7.10;;;4.13;;
11481;SDS011;5797;51.662;6.748;2022-10-04T12:43:19;9.77;;;4.83;;
11481;SDS011;5797;51.662;6.748;2022-10-04T12:46:15;7.60;;;4.20;;
11481;SDS011;5797;51.662;6.748;2022-10-04T12:49:17;8.63;;;3.43;;
11481;SDS011;5797;51.662;6.748;2022-10-04T12:52:14;6.13;;;4.10;;
11481;SDS011;5797;51.662;6.748;2022-10-04T12:55:08;8.63;;;3.57;;
11481;SDS011;5797;51.662;6.748;2022-10-04T12:58:06;8.30;;;3.70;;
11481;SDS011;5797;51.662;6.748;2022-10-04T13:01:04;5.23;;;3.57;;
11481;SDS011;5797;51.662;6.748;2022-10-04T13:10:29;7.83;;;3.87;;
11481;SDS011;5797;51.662;6.748;2022-10-04T13:13:33;9.77;;;4.17;;
11481;SDS011;5797;51.662;6.748;2022-10-04T13:16:40;5.23;;;3.50;;
11481;SDS011;5797;51.662;6.748;2022-10-04T13:19:54;10.93;;;4.23;;
11481;SDS011;5797;51.662;6.748;2022-10-04T13:22:51;6.83;;;3.50;;
11481;SDS011;5797;51.662;6.748;2022-10-04T13:29:00;7.60;;;3.60;;
11481;SDS011;5797;51.662;6.748;2022-10-04T13:31:51;11.97;;;3.53;;
11481;SDS011;5797;51.662;6.748;2022-10-04T13:34:42;4.87;;;3.40;;
11481;SDS011;5797;51.662;6.748;2022-10-04T13:37:36;10.15;;;3.58;;
11481;SDS011;5797;51.662;6.748;2022-10-04T13:43:53;9.07;;;3.93;;
11481;SDS011;5797;51.662;6.748;2022-10-04T13:46:57;4.75;;;3.35;;
11481;SDS011;5797;51.662;6.748;2022-10-04T13:50:00;5.80;;;4.25;;
11481;SDS011;5797;51.662;6.748;2022-10-04T13:53:03;5.82;;;3.35;;
11481;SDS011;5797;51.662;6.748;2022-10-04T13:56:21;6.65;;;3.03;;
11481;SDS011;5797;51.662;6.748;2022-10-04T13:59:28;6.00;;;3.47;;
11481;SDS011;5797;51.662;6.748;2022-10-04T14:02:28;7.23;;;3.33;;
11481;SDS011;5797;51.662;6.748;2022-10-04T14:06:02;5.55;;;3.28;;
11481;SDS011;5797;51.662;6.748;2022-10-04T14:09:14;7.25;;;3.55;;
11481;SDS011;5797;51.662;6.748;2022-10-04T14:12:37;6.17;;;3.20;;
11481;SDS011;5797;51.662;6.748;2022-10-04T14:15:41;7.17;;;3.40;;
11481;SDS011;5797;51.662;6.748;2022-10-04T14:18:45;6.10;;;3.20;;
11481;SDS011;5797;51.662;6.748;2022-10-04T14:31:41;10.53;;;3.70;;
11481;SDS011;5797;51.662;6.748;2022-10-04T14:34:46;4.93;;;3.10;;
11481;SDS011;5797;51.662;6.748;2022-10-04T14:44:33;7.90;;;3.30;;
11481;SDS011;5797;51.662;6.748;2022-10-04T14:54:26;4.93;;;3.00;;
11481;SDS011;5797;51.662;6.748;2022-10-04T14:57:26;7.10;;;2.92;;
11481;SDS011;5797;51.662;6.748;2022-10-04T15:00:35;7.90;;;3.60;;
11481;SDS011;5797;51.662;6.748;2022-10-04T15:03:55;5.37;;;3.10;;
11481;SDS011;5797;51.662;6.748;2022-10-04T15:06:55;5.97;;;3.27;;
11481;SDS011;5797;51.662;6.748;2022-10-04T15:09:51;9.03;;;3.97;;
11481;SDS011;5797;51.662;6.748;2022-10-04T15:12:44;6.87;;;3.73;;
11481;SDS011;5797;51.662;6.748;2022-10-04T15:15:58;5.40;;;2.97;;
11481;SDS011;5797;51.662;6.748;2022-10-04T15:18:54;6.63;;;2.90;;
11481;SDS011;5797;51.662;6.748;2022-10-04T15:21:45;9.50;;;4.00;;
11481;SDS011;5797;51.662;6.748;2022-10-04T15:24:44;5.73;;;2.80;;
11481;SDS011;5797;51.662;6.748;2022-10-04T15:30:41;5.73;;;2.87;;
11481;SDS011;5797;51.662;6.748;2022-10-04T15:33:36;9.13;;;3.10;;
11481;SDS011;5797;51.662;6.748;2022-10-04T15:36:30;10.17;;;3.83;;
11481;SDS011;5797;51.662;6.748;2022-10-04T15:39:30;14.10;;;4.57;;
11481;SDS011;5797;51.662;6.748;2022-10-04T15:42:26;9.27;;;3.90;;
11481;SDS011;5797;51.662;6.748;2022-10-04T15:48:51;6.13;;;3.00;;
11481;SDS011;5797;51.662;6.748;2022-10-04T15:51:46;5.43;;;3.07;;
11481;SDS011;5797;51.662;6.748;2022-10-04T15:58:13;8.60;;;2.90;;
11481;SDS011;5797;51.662;6.748;2022-10-04T16:01:20;3.93;;;2.60;;
11481;SDS011;5797;51.662;6.748;2022-10-04T16:04:35;8.17;;;3.30;;
11481;SDS011;5797;51.662;6.748;2022-10-04T16:07:40;7.33;;;2.80;;
11481;SDS011;5797;51.662;6.748;2022-10-04T16:10:49;7.63;;;3.57;;
11481;SDS011;5797;51.662;6.748;2022-10-04T16:13:54;4.13;;;2.80;;
11481;SDS011;5797;51.662;6.748;2022-10-04T16:16:49;9.23;;;3.43;;
11481;SDS011;5797;51.662;6.748;2022-10-04T16:19:52;4.73;;;3.30;;
11481;SDS011;5797;51.662;6.748;2022-10-04T16:26:08;4.13;;;2.97;;
11481;SDS011;5797;51.662;6.748;2022-10-04T16:29:02;6.53;;;3.30;;
11481;SDS011;5797;51.662;6.748;2022-10-04T16:31:56;8.70;;;3.00;;
11481;SDS011;5797;51.662;6.748;2022-10-04T16:34:52;3.40;;;2.80;;
11481;SDS011;5797;51.662;6.748;2022-10-04T16:37:43;3.67;;;2.67;;
11481;SDS011;5797;51.662;6.748;2022-10-04T16:40:46;3.40;;;2.57;;
11481;SDS011;5797;51.662;6.748;2022-10-04T16:43:47;6.17;;;3.50;;
11481;SDS011;5797;51.662;6.748;2022-10-04T16:46:38;5.63;;;2.93;;
11481;SDS011;5797;51.662;6.748;2022-10-04T16:49:32;8.03;;;4.13;;
11481;SDS011;5797;51.662;6.748;2022-10-04T16:52:40;7.83;;;3.67;;
11481;SDS011;5797;51.662;6.748;2022-10-04T16:55:44;7.40;;;3.17;;
11481;SDS011;5797;51.662;6.748;2022-10-04T16:58:43;4.67;;;2.97;;
11481;SDS011;5797;51.662;6.748;2022-10-04T17:08:46;7.77;;;4.07;;
11481;SDS011;5797;51.662;6.748;2022-10-04T17:11:44;5.67;;;3.40;;
11481;SDS011;5797;51.662;6.748;2022-10-04T17:14:42;4.77;;;3.53;;
11481;SDS011;5797;51.662;6.748;2022-10-04T17:17:43;6.40;;;3.30;;
11481;SDS011;5797;51.662;6.748;2022-10-04T17:20:37;9.43;;;3.63;;
11481;SDS011;5797;51.662;6.748;2022-10-04T17:23:47;6.00;;;3.20;;
11481;SDS011;5797;51.662;6.748;2022-10-04T17:26:44;5.43;;;3.50;;
11481;SDS011;5797;51.662;6.748;2022-10-04T17:29:39;11.17;;;3.40;;
11481;SDS011;5797;51.662;6.748;2022-10-04T17:32:35;7.47;;;3.37;;
11481;SDS011;5797;51.662;6.748;2022-10-04T17:35:45;8.33;;;3.50;;
11481;SDS011;5797;51.662;6.748;2022-10-04T17:38:56;7.67;;;3.73;;
11481;SDS011;5797;51.662;6.748;2022-10-04T17:41:50;4.80;;;3.73;;
11481;SDS011;5797;51.662;6.748;2022-10-04T17:44:48;5.20;;;4.00;;
11481;SDS011;5797;51.662;6.748;2022-10-04T17:47:44;8.63;;;4.43;;
11481;SDS011;5797;51.662;6.748;2022-10-04T17:50:57;9.40;;;5.30;;
11481;SDS011;5797;51.662;6.748;2022-10-04T17:54:09;9.07;;;4.90;;
11481;SDS011;5797;51.662;6.748;2022-10-04T17:57:17;7.20;;;3.97;;
11481;SDS011;5797;51.662;6.748;2022-10-04T18:00:10;8.27;;;4.17;;
11481;SDS011;5797;51.662;6.748;2022-10-04T18:03:03;9.50;;;4.07;;
11481;SDS011;5797;51.662;6.748;2022-10-04T18:05:55;6.80;;;4.17;;
11481;SDS011;5797;51.662;6.748;2022-10-04T18:08:45;8.27;;;4.10;;
11481;SDS011;5797;51.662;6.748;2022-10-04T18:11:42;7.67;;;4.53;;
11481;SDS011;5797;51.662;6.748;2022-10-04T18:14:44;9.27;;;4.53;;
11481;SDS011;5797;51.662;6.748;2022-10-04T18:17:37;5.13;;;4.13;;
11481;SDS011;5797;51.662;6.748;2022-10-04T18:20:26;9.97;;;5.07;;
11481;SDS011;5797;51.662;6.748;2022-10-04T18:23:16;8.03;;;4.23;;
11481;SDS011;5797;51.662;6.748;2022-10-04T18:26:10;5.87;;;4.30;;
11481;SDS011;5797;51.662;6.748;2022-10-04T18:29:05;8.00;;;4.20;;
11481;SDS011;5797;51.662;6.748;2022-10-04T18:31:53;10.03;;;4.73;;
11481;SDS011;5797;51.662;6.748;2022-10-04T18:34:45;9.23;;;4.67;;
11481;SDS011;5797;51.662;6.748;2022-10-04T18:37:38;8.20;;;4.67;;
11481;SDS011;5797;51.662;6.748;2022-10-04T18:40:26;11.83;;;4.80;;
11481;SDS011;5797;51.662;6.748;2022-10-04T18:43:22;7.20;;;4.60;;
11481;SDS011;5797;51.662;6.748;2022-10-04T18:46:14;5.97;;;4.10;;
11481;SDS011;5797;51.662;6.748;2022-10-04T18:49:10;9.57;;;4.40;;
11481;SDS011;5797;51.662;6.748;2022-10-04T18:52:06;9.10;;;5.10;;
11481;SDS011;5797;51.662;6.748;2022-10-04T18:55:04;12.90;;;5.83;;
11481;SDS011;5797;51.662;6.748;2022-10-04T18:58:02;12.43;;;5.43;;
11481;SDS011;5797;51.662;6.748;2022-10-04T19:01:13;8.83;;;4.67;;
11481;SDS011;5797;51.662;6.748;2022-10-04T19:04:36;12.90;;;5.83;;
11481;SDS011;5797;51.662;6.748;2022-10-04T19:07:32;9.27;;;6.03;;
11481;SDS011;5797;51.662;6.748;2022-10-04T19:10:24;13.77;;;6.20;;
11481;SDS011;5797;51.662;6.748;2022-10-04T19:13:18;9.03;;;5.10;;
11481;SDS011;5797;51.662;6.748;2022-10-04T19:16:13;9.93;;;4.90;;
11481;SDS011;5797;51.662;6.748;2022-10-04T19:19:21;8.50;;;4.50;;
11481;SDS011;5797;51.662;6.748;2022-10-04T19:22:25;11.87;;;4.60;;
11481;SDS011;5797;51.662;6.748;2022-10-04T19:25:18;8.83;;;4.07;;
11481;SDS011;5797;51.662;6.748;2022-10-04T19:28:16;8.87;;;4.00;;
11481;SDS011;5797;51.662;6.748;2022-10-04T19:31:10;10.50;;;3.77;;
11481;SDS011;5797;51.662;6.748;2022-10-04T19:34:01;5.10;;;3.50;;
11481;SDS011;5797;51.662;6.748;2022-10-04T19:36:54;6.03;;;4.03;;
11481;SDS011;5797;51.662;6.748;2022-10-04T19:39:47;5.00;;;3.87;;
11481;SDS011;5797;51.662;6.748;2022-10-04T19:42:41;5.47;;;3.40;;
11481;SDS011;5797;51.662;6.748;2022-10-04T19:45:36;7.57;;;4.30;;
11481;SDS011;5797;51.662;6.748;2022-10-04T19:48:31;5.50;;;3.63;;
11481;SDS011;5797;51.662;6.748;2022-10-04T19:51:24;5.03;;;4.13;;
11481;SDS011;5797;51.662;6.748;2022-10-04T19:54:16;10.30;;;4.33;;
11481;SDS011;5797;51.662;6.748;2022-10-04T19:59:56;6.63;;;3.57;;
11481;SDS011;5797;51.662;6.748;2022-10-04T20:02:43;5.67;;;3.47;;
11481;SDS011;5797;51.662;6.748;2022-10-04T20:05:33;9.57;;;3.47;;